createdAt,value
2018-07-31T00:01:07.424Z,22.30
2018-07-31T00:03:35.636Z,22.30
2018-07-31T00:06:03.876Z,22.20
2018-07-31T00:08:32.072Z,22.20
2018-07-31T00:11:00.311Z,22.10
2018-07-31T00:13:28.484Z,22.10
2018-07-31T00:15:56.716Z,22.00
2018-07-31T00:18:24.920Z,22.00
2018-07-31T00:20:53.089Z,22.00
2018-07-31T00:23:21.283Z,22.00
2018-07-31T00:25:49.461Z,21.70
2018-07-31T00:28:17.669Z,21.70
2018-07-31T00:30:45.860Z,21.70
2018-07-31T00:33:14.029Z,21.70
2018-07-31T00:35:42.229Z,21.60
2018-07-31T00:38:10.800Z,21.60
2018-07-31T00:40:38.985Z,21.70
2018-07-31T00:43:07.200Z,21.70
2018-07-31T00:45:35.408Z,21.60
2018-07-31T00:48:03.669Z,21.50
2018-07-31T00:50:31.820Z,21.50
2018-07-31T00:53:00.000Z,21.50
2018-07-31T00:55:28.203Z,21.60
2018-07-31T01:00:24.652Z,21.60
2018-07-31T01:02:52.815Z,21.60
2018-07-31T01:05:21.002Z,21.60
2018-07-31T01:07:49.203Z,21.60
2018-07-31T01:10:17.413Z,21.50
2018-07-31T01:12:45.635Z,21.50
2018-07-31T01:15:13.801Z,21.50
2018-07-31T01:17:42.001Z,21.40
2018-07-31T01:20:10.160Z,21.50
2018-07-31T01:22:38.348Z,21.40
2018-07-31T01:27:34.599Z,21.40
2018-07-31T01:30:03.033Z,21.40
2018-07-31T01:32:31.183Z,21.30
2018-07-31T01:34:59.381Z,21.10
2018-07-31T01:37:27.580Z,21.10
2018-07-31T01:39:55.785Z,21.00
2018-07-31T01:42:23.971Z,20.90
2018-07-31T01:44:52.133Z,20.90
2018-07-31T01:47:20.361Z,20.90
2018-07-31T01:49:48.648Z,20.60
2018-07-31T01:52:16.869Z,20.60
2018-07-31T01:54:45.376Z,20.50
2018-07-31T01:57:13.520Z,20.50
2018-07-31T01:59:41.768Z,20.40
2018-07-31T02:02:09.984Z,20.30
2018-07-31T02:04:38.125Z,20.30
2018-07-31T02:07:06.356Z,20.30
2018-07-31T02:09:34.512Z,20.30
2018-07-31T02:12:02.716Z,20.30
2018-07-31T02:14:30.917Z,20.20
2018-07-31T02:16:59.130Z,20.20
2018-07-31T02:19:27.321Z,20.30
2018-07-31T02:21:55.468Z,20.30
2018-07-31T02:24:23.663Z,20.30
2018-07-31T02:26:51.808Z,20.30
2018-07-31T02:29:24.451Z,20.30
2018-07-31T02:31:52.648Z,20.30
2018-07-31T02:34:20.798Z,20.30
2018-07-31T02:36:48.980Z,20.30
2018-07-31T02:39:17.136Z,20.30
2018-07-31T02:41:45.997Z,20.30
2018-07-31T02:44:14.166Z,20.40
2018-07-31T02:46:42.391Z,20.40
2018-07-31T02:49:10.606Z,20.40
2018-07-31T02:51:38.785Z,20.30
2018-07-31T02:54:06.989Z,20.20
2018-07-31T02:56:35.132Z,20.20
2018-07-31T03:01:31.300Z,20.10
2018-07-31T03:03:59.504Z,19.90
2018-07-31T03:06:27.656Z,19.80
2018-07-31T03:08:55.817Z,19.80
2018-07-31T03:11:24.056Z,19.80
2018-07-31T03:13:52.212Z,19.60
2018-07-31T03:16:20.398Z,19.50
2018-07-31T03:18:48.601Z,19.40
2018-07-31T03:21:16.790Z,19.40
2018-07-31T03:23:45.002Z,19.30
2018-07-31T03:26:13.157Z,19.20
2018-07-31T03:28:41.368Z,19.10
2018-07-31T03:31:09.564Z,19.10
2018-07-31T03:33:37.730Z,19.10
2018-07-31T03:36:05.948Z,19.10
2018-07-31T03:38:34.113Z,18.90
2018-07-31T03:41:02.348Z,18.90
2018-07-31T03:43:30.568Z,18.90
2018-07-31T03:45:58.741Z,18.90
2018-07-31T03:48:26.968Z,18.90
2018-07-31T03:50:55.187Z,18.80
2018-07-31T03:53:23.372Z,18.70
2018-07-31T03:55:51.573Z,18.70
2018-07-31T03:58:19.739Z,18.70
2018-07-31T04:00:47.945Z,18.70
2018-07-31T04:03:16.120Z,18.80
2018-07-31T04:05:44.405Z,18.90
2018-07-31T04:08:12.567Z,19.00
2018-07-31T04:10:40.757Z,18.90
2018-07-31T04:13:08.967Z,18.90
2018-07-31T04:15:37.121Z,18.90
2018-07-31T04:18:05.385Z,19.00
2018-07-31T04:20:33.556Z,19.00
2018-07-31T04:23:01.756Z,19.10
2018-07-31T04:25:29.968Z,19.00
2018-07-31T04:27:58.165Z,19.00
2018-07-31T04:30:26.457Z,19.00
2018-07-31T04:32:54.656Z,19.00
2018-07-31T04:35:22.892Z,19.00
2018-07-31T04:37:51.048Z,19.10
2018-07-31T04:40:19.251Z,19.30
2018-07-31T04:42:47.457Z,19.30
2018-07-31T04:45:15.632Z,19.30
2018-07-31T04:47:43.822Z,19.40
2018-07-31T04:50:12.003Z,19.40
2018-07-31T04:52:40.212Z,19.50
2018-07-31T04:55:08.449Z,19.40
2018-07-31T04:57:36.609Z,19.50
2018-07-31T05:00:06.947Z,19.60
2018-07-31T05:02:35.144Z,19.60
2018-07-31T05:05:03.556Z,19.60
2018-07-31T05:07:35.341Z,19.60
2018-07-31T05:10:03.692Z,19.80
2018-07-31T05:12:38.933Z,20.10
2018-07-31T05:15:07.172Z,20.50
2018-07-31T05:17:36.100Z,20.90
2018-07-31T05:20:05.223Z,21.20
2018-07-31T05:22:33.440Z,21.60
2018-07-31T05:25:01.609Z,21.90
2018-07-31T05:27:29.808Z,22.00
2018-07-31T05:29:58.024Z,22.20
2018-07-31T05:32:26.415Z,22.50
2018-07-31T05:34:54.617Z,22.90
2018-07-31T05:37:22.833Z,23.30
2018-07-31T05:39:51.084Z,23.50
2018-07-31T05:42:19.316Z,23.70
2018-07-31T05:44:47.500Z,23.90
2018-07-31T05:47:15.702Z,24.10
2018-07-31T05:49:43.863Z,24.00
2018-07-31T05:52:12.056Z,24.10
2018-07-31T05:54:40.369Z,24.10
2018-07-31T05:57:08.971Z,24.20
2018-07-31T05:59:38.056Z,24.40
2018-07-31T06:02:06.942Z,24.30
2018-07-31T06:04:35.148Z,24.50
2018-07-31T06:07:03.716Z,24.50
2018-07-31T06:09:31.994Z,24.80
2018-07-31T06:12:00.197Z,24.80
2018-07-31T06:14:28.393Z,24.80
2018-07-31T06:16:56.594Z,25.00
2018-07-31T06:19:24.815Z,25.10
2018-07-31T06:21:53.084Z,25.00
2018-07-31T06:24:21.232Z,25.00
2018-07-31T06:26:49.429Z,25.20
2018-07-31T06:29:17.585Z,25.40
2018-07-31T06:31:45.794Z,25.50
2018-07-31T06:34:13.971Z,25.60
2018-07-31T06:36:42.166Z,25.80
2018-07-31T06:39:10.688Z,25.70
2018-07-31T06:41:38.877Z,25.90
2018-07-31T06:44:07.465Z,26.10
2018-07-31T06:46:35.816Z,26.40
2018-07-31T06:49:04.138Z,26.40
2018-07-31T06:51:32.285Z,26.50
2018-07-31T06:54:00.473Z,26.50
2018-07-31T06:56:28.637Z,26.70
2018-07-31T06:58:56.860Z,27.00
2018-07-31T07:01:25.088Z,27.30
2018-07-31T07:03:53.297Z,27.40
2018-07-31T07:06:21.505Z,27.70
2018-07-31T07:08:49.667Z,27.80
2018-07-31T07:11:17.929Z,27.90
2018-07-31T07:13:46.099Z,28.20
2018-07-31T07:16:14.296Z,28.30
2018-07-31T07:18:42.479Z,28.40
2018-07-31T07:21:10.644Z,28.50
2018-07-31T07:26:06.777Z,28.20
2018-07-31T07:28:34.968Z,28.40
2018-07-31T07:31:03.165Z,28.50
2018-07-31T07:33:31.377Z,28.40
2018-07-31T07:35:59.621Z,28.60
2018-07-31T07:38:27.800Z,28.60
2018-07-31T07:40:55.996Z,28.80
2018-07-31T07:43:24.200Z,29.00
2018-07-31T07:45:52.358Z,29.10
2018-07-31T07:48:20.581Z,29.40
2018-07-31T07:50:49.472Z,29.70
2018-07-31T07:53:17.648Z,29.90
2018-07-31T07:55:45.853Z,30.00
2018-07-31T07:58:14.020Z,30.10
2018-07-31T08:00:42.228Z,30.20
2018-07-31T08:03:10.401Z,30.10
2018-07-31T08:05:41.381Z,30.00
2018-07-31T08:08:10.482Z,30.10
2018-07-31T08:10:41.130Z,30.30
2018-07-31T08:13:09.385Z,30.40
2018-07-31T08:15:37.624Z,30.70
2018-07-31T08:18:05.808Z,30.60
2018-07-31T08:20:34.328Z,30.60
2018-07-31T08:23:02.565Z,30.70
2018-07-31T08:25:30.817Z,30.60
2018-07-31T08:27:59.077Z,30.60
2018-07-31T08:30:27.292Z,30.40
2018-07-31T08:32:55.508Z,30.40
2018-07-31T08:35:23.693Z,30.60
2018-07-31T08:37:51.917Z,30.40
2018-07-31T08:40:20.116Z,30.40
2018-07-31T08:42:48.331Z,30.60
2018-07-31T08:45:16.517Z,31.00
2018-07-31T08:47:44.709Z,31.10
2018-07-31T08:50:12.848Z,31.10
2018-07-31T08:52:41.036Z,31.20
2018-07-31T08:55:09.220Z,31.40
2018-07-31T08:57:37.429Z,31.50
2018-07-31T09:00:07.184Z,31.40
2018-07-31T09:02:35.397Z,31.60
2018-07-31T09:05:03.736Z,31.30
2018-07-31T09:07:31.913Z,31.30
2018-07-31T09:10:00.188Z,31.40
2018-07-31T09:12:28.385Z,31.40
2018-07-31T09:14:56.585Z,31.50
2018-07-31T09:17:24.863Z,31.50
2018-07-31T09:19:53.084Z,31.50
2018-07-31T09:22:21.356Z,31.60
2018-07-31T09:24:49.596Z,31.70
2018-07-31T09:27:17.746Z,31.70
2018-07-31T09:29:45.932Z,31.70
2018-07-31T09:32:14.136Z,31.80
2018-07-31T09:34:46.501Z,31.90
2018-07-31T09:37:15.457Z,31.80
2018-07-31T09:39:43.647Z,31.90
2018-07-31T09:42:11.849Z,31.90
2018-07-31T09:44:40.043Z,32.10
2018-07-31T09:47:08.196Z,32.10
2018-07-31T09:49:43.045Z,31.90
2018-07-31T09:52:11.188Z,32.00
2018-07-31T09:54:39.390Z,32.00
2018-07-31T09:57:07.642Z,32.10
2018-07-31T09:59:35.813Z,32.00
2018-07-31T10:02:04.012Z,32.10
2018-07-31T10:04:32.243Z,32.10
2018-07-31T10:07:00.386Z,31.90
2018-07-31T10:09:28.700Z,32.20
2018-07-31T10:11:56.949Z,32.40
2018-07-31T10:14:25.209Z,32.50
2018-07-31T10:16:53.428Z,32.30
2018-07-31T10:19:21.572Z,32.50
2018-07-31T10:21:49.769Z,32.20
2018-07-31T10:24:18.035Z,32.10
2018-07-31T10:26:46.273Z,32.10
2018-07-31T10:29:14.510Z,32.00
2018-07-31T10:31:42.693Z,32.10
2018-07-31T10:34:10.878Z,32.50
2018-07-31T10:36:39.103Z,32.60
2018-07-31T10:39:08.334Z,32.60
2018-07-31T10:41:36.775Z,32.60
2018-07-31T10:44:05.049Z,32.60
2018-07-31T10:46:33.197Z,32.80
2018-07-31T10:49:01.450Z,32.90
2018-07-31T10:51:29.636Z,33.00
2018-07-31T10:53:57.821Z,33.00
2018-07-31T10:56:26.005Z,33.20
2018-07-31T10:58:54.196Z,33.20
2018-07-31T11:01:22.383Z,33.00
2018-07-31T11:03:50.583Z,33.00
2018-07-31T11:06:18.853Z,33.10
2018-07-31T11:08:46.985Z,33.10
2018-07-31T11:11:15.241Z,32.80
2018-07-31T11:13:43.421Z,32.80
2018-07-31T11:16:11.620Z,32.90
2018-07-31T11:18:40.016Z,33.10
2018-07-31T11:21:08.294Z,33.40
2018-07-31T11:23:36.403Z,33.50
2018-07-31T11:26:04.572Z,33.60
2018-07-31T11:28:32.818Z,33.60
2018-07-31T11:31:01.069Z,33.00
2018-07-31T11:33:29.232Z,32.80
2018-07-31T11:35:57.450Z,33.10
2018-07-31T11:38:25.613Z,33.10
2018-07-31T11:40:53.836Z,33.20
2018-07-31T11:43:22.029Z,33.00
2018-07-31T11:45:50.220Z,33.20
2018-07-31T11:48:18.429Z,33.60
2018-07-31T11:50:46.693Z,33.90
2018-07-31T11:53:14.881Z,33.90
2018-07-31T11:55:43.053Z,33.70
2018-07-31T11:58:11.344Z,33.50
2018-07-31T12:00:39.529Z,33.60
2018-07-31T12:03:07.730Z,33.60
2018-07-31T12:05:35.960Z,33.80
2018-07-31T12:08:04.132Z,33.70
2018-07-31T12:10:32.343Z,33.60
2018-07-31T12:13:00.528Z,33.70
2018-07-31T12:15:28.737Z,33.50
2018-07-31T12:17:57.257Z,33.70
2018-07-31T12:20:25.465Z,33.90
2018-07-31T12:22:53.665Z,34.30
2018-07-31T12:25:21.846Z,34.50
2018-07-31T12:27:50.081Z,34.80
2018-07-31T12:30:18.282Z,34.50
2018-07-31T12:32:46.543Z,34.50
2018-07-31T12:37:42.636Z,34.40
2018-07-31T12:40:10.845Z,34.70
2018-07-31T12:42:39.016Z,34.90
2018-07-31T12:45:07.233Z,34.40
2018-07-31T12:47:35.461Z,34.60
2018-07-31T12:50:04.340Z,34.80
2018-07-31T12:52:32.517Z,35.10
2018-07-31T12:55:00.702Z,35.20
2018-07-31T12:57:29.268Z,35.20
2018-07-31T12:59:57.497Z,34.90
2018-07-31T13:02:25.677Z,34.70
2018-07-31T13:04:53.883Z,34.70
2018-07-31T13:07:22.076Z,34.90
2018-07-31T13:09:50.265Z,35.30
2018-07-31T13:12:18.459Z,35.30
2018-07-31T13:14:46.624Z,35.10
2018-07-31T13:17:14.852Z,34.70
2018-07-31T13:19:43.010Z,34.30
2018-07-31T13:22:11.252Z,34.10
2018-07-31T13:24:39.464Z,34.30
2018-07-31T13:27:07.649Z,34.40
2018-07-31T13:29:35.885Z,34.50
2018-07-31T13:32:04.089Z,34.80
2018-07-31T13:34:32.311Z,34.70
2018-07-31T13:37:00.502Z,34.70
2018-07-31T13:39:28.650Z,34.70
2018-07-31T13:41:56.906Z,34.80
2018-07-31T13:44:25.081Z,34.40
2018-07-31T13:46:53.277Z,34.50
2018-07-31T13:49:21.476Z,34.50
2018-07-31T13:51:49.668Z,34.80
2018-07-31T13:54:17.856Z,34.60
2018-07-31T13:56:46.013Z,34.50
2018-07-31T13:59:14.204Z,34.50
2018-07-31T14:01:42.516Z,34.80
2018-07-31T14:04:10.710Z,34.90
2018-07-31T14:06:38.937Z,34.90
2018-07-31T14:09:08.787Z,35.10
2018-07-31T14:11:37.066Z,34.70
2018-07-31T14:14:05.362Z,34.90
2018-07-31T14:16:33.853Z,35.30
2018-07-31T14:19:02.071Z,35.50
2018-07-31T14:21:30.245Z,35.50
2018-07-31T14:23:58.448Z,35.50
2018-07-31T14:26:26.608Z,35.30
2018-07-31T14:28:54.833Z,35.10
2018-07-31T14:31:23.057Z,35.00
2018-07-31T14:33:51.249Z,35.10
2018-07-31T14:36:19.449Z,35.10
2018-07-31T14:38:47.678Z,35.00
2018-07-31T14:41:15.810Z,34.70
2018-07-31T14:43:44.029Z,34.60
2018-07-31T14:46:12.220Z,34.70
2018-07-31T14:48:40.385Z,34.80
2018-07-31T14:51:08.591Z,34.90
2018-07-31T14:53:36.760Z,35.10
2018-07-31T14:56:04.985Z,35.00
2018-07-31T14:58:33.192Z,34.90
2018-07-31T15:01:01.424Z,34.60
2018-07-31T15:03:29.615Z,34.90
2018-07-31T15:05:58.161Z,35.00
2018-07-31T15:08:26.361Z,34.90
2018-07-31T15:10:54.544Z,34.50
2018-07-31T15:13:22.764Z,34.40
2018-07-31T15:15:50.956Z,34.20
2018-07-31T15:18:19.165Z,34.30
2018-07-31T15:20:47.347Z,34.30
2018-07-31T15:23:15.536Z,34.30
2018-07-31T15:25:43.724Z,34.40
2018-07-31T15:28:11.903Z,34.50
2018-07-31T15:30:40.194Z,34.50
2018-07-31T15:33:08.403Z,34.30
2018-07-31T15:35:36.613Z,34.20
2018-07-31T15:38:04.820Z,34.30
2018-07-31T15:40:32.977Z,34.40
2018-07-31T15:43:01.183Z,34.40
2018-07-31T15:45:29.357Z,34.40
2018-07-31T15:47:57.556Z,34.40
2018-07-31T15:50:25.813Z,34.10
2018-07-31T15:52:54.034Z,33.80
2018-07-31T15:55:22.255Z,33.80
2018-07-31T15:57:50.416Z,33.70
2018-07-31T16:00:18.699Z,33.20
2018-07-31T16:02:46.941Z,33.00
2018-07-31T16:05:15.116Z,33.00
2018-07-31T16:07:43.333Z,32.70
2018-07-31T16:10:11.503Z,32.70
2018-07-31T16:12:39.720Z,32.80
2018-07-31T16:15:07.974Z,32.80
2018-07-31T16:17:36.160Z,32.60
2018-07-31T16:20:04.561Z,32.60
2018-07-31T16:22:32.745Z,32.50
2018-07-31T16:25:00.943Z,32.50
2018-07-31T16:27:29.163Z,32.30
2018-07-31T16:29:57.389Z,32.30
2018-07-31T16:32:25.693Z,32.30
2018-07-31T16:34:53.865Z,32.20
2018-07-31T16:37:22.071Z,32.10
2018-07-31T16:39:50.290Z,32.10
2018-07-31T16:42:18.492Z,32.10
2018-07-31T16:44:46.697Z,32.10
2018-07-31T16:47:14.881Z,32.00
2018-07-31T16:49:43.074Z,32.00
2018-07-31T16:52:11.274Z,31.90
2018-07-31T16:54:39.473Z,31.90
2018-07-31T16:57:07.766Z,31.90
2018-07-31T16:59:35.924Z,31.70
2018-07-31T17:02:04.144Z,31.70
2018-07-31T17:04:32.340Z,31.60
2018-07-31T17:07:00.553Z,31.60
2018-07-31T17:09:28.762Z,31.70
2018-07-31T17:11:56.994Z,31.70
2018-07-31T17:14:25.180Z,31.80
2018-07-31T17:16:53.384Z,31.80
2018-07-31T17:19:21.586Z,31.70
2018-07-31T17:21:49.869Z,31.60
2018-07-31T17:24:18.069Z,31.50
2018-07-31T17:26:46.288Z,31.40
2018-07-31T17:29:14.576Z,31.20
2018-07-31T17:31:42.786Z,31.20
2018-07-31T17:34:11.000Z,31.20
2018-07-31T17:36:39.188Z,31.10
2018-07-31T17:39:09.489Z,31.00
2018-07-31T17:41:38.325Z,30.90
2018-07-31T17:44:06.564Z,30.90
2018-07-31T17:46:34.856Z,30.80
2018-07-31T17:49:03.021Z,30.70
2018-07-31T17:51:31.273Z,30.70
2018-07-31T17:53:59.545Z,30.60
2018-07-31T17:56:27.772Z,30.50
2018-07-31T17:58:55.988Z,30.50
2018-07-31T18:01:24.177Z,30.40
2018-07-31T18:03:52.452Z,30.40
2018-07-31T18:06:20.632Z,30.30
2018-07-31T18:08:48.862Z,30.20
2018-07-31T18:11:17.032Z,30.20
2018-07-31T18:13:45.269Z,30.10
2018-07-31T18:16:13.469Z,30.00
2018-07-31T18:18:41.804Z,30.00
2018-07-31T18:21:10.370Z,29.80
2018-07-31T18:23:39.571Z,29.70
2018-07-31T18:26:07.839Z,29.60
2018-07-31T18:28:36.034Z,29.40
2018-07-31T18:31:04.384Z,29.30
2018-07-31T18:33:32.640Z,29.30
2018-07-31T18:36:00.893Z,29.20
2018-07-31T18:38:29.097Z,29.10
2018-07-31T18:40:57.428Z,29.00
2018-07-31T18:43:25.605Z,28.90
2018-07-31T18:45:53.769Z,28.80
2018-07-31T18:48:21.976Z,28.80
2018-07-31T18:50:50.177Z,28.80
2018-07-31T18:53:18.394Z,28.80
2018-07-31T18:55:47.532Z,28.80
2018-07-31T18:58:15.753Z,28.70
2018-07-31T19:00:43.927Z,28.70
2018-07-31T19:03:12.109Z,28.70
2018-07-31T19:05:40.612Z,28.60
2018-07-31T19:08:08.866Z,28.40
2018-07-31T19:10:37.241Z,28.30
2018-07-31T19:13:05.491Z,28.20
2018-07-31T19:15:33.710Z,28.20
2018-07-31T19:18:01.937Z,28.10
2018-07-31T19:20:30.161Z,28.10
2018-07-31T19:22:58.353Z,28.00
2018-07-31T19:25:26.532Z,28.00
2018-07-31T19:27:55.272Z,28.00
2018-07-31T19:30:24.420Z,27.90
2018-07-31T19:32:53.657Z,27.90
2018-07-31T19:35:21.892Z,27.90
2018-07-31T19:37:50.541Z,27.80
2018-07-31T19:40:18.772Z,27.70
2018-07-31T19:42:47.143Z,27.70
2018-07-31T19:45:15.801Z,27.70
2018-07-31T19:47:44.725Z,27.70
2018-07-31T19:50:12.941Z,27.70
2018-07-31T19:52:41.137Z,27.70
2018-07-31T19:55:09.385Z,27.60
2018-07-31T19:57:37.617Z,27.50
2018-07-31T20:02:34.089Z,27.30
2018-07-31T20:05:02.293Z,27.20
2018-07-31T20:07:30.831Z,27.20
2018-07-31T20:09:59.064Z,27.10
2018-07-31T20:12:27.421Z,27.20
2018-07-31T20:14:55.641Z,27.10
2018-07-31T20:17:23.844Z,26.90
2018-07-31T20:19:53.609Z,26.80
2018-07-31T20:22:22.208Z,26.70
2018-07-31T20:24:50.433Z,26.60
2018-07-31T20:27:19.603Z,26.50
2018-07-31T20:29:47.948Z,26.50
2018-07-31T20:32:16.983Z,26.30
2018-07-31T20:34:45.231Z,26.30
2018-07-31T20:37:13.486Z,26.30
2018-07-31T20:39:43.796Z,26.30
2018-07-31T20:42:12.957Z,26.40
2018-07-31T20:44:41.181Z,26.40
2018-07-31T20:47:09.528Z,26.20
2018-07-31T20:49:37.751Z,26.20
2018-07-31T20:52:06.338Z,26.10
2018-07-31T20:54:34.505Z,25.90
2018-07-31T20:57:02.837Z,25.80
2018-07-31T20:59:31.037Z,25.90
2018-07-31T21:01:59.790Z,25.80
2018-07-31T21:04:28.006Z,25.70
2018-07-31T21:06:56.736Z,25.60
2018-07-31T21:09:25.474Z,25.60
2018-07-31T21:11:54.172Z,25.50
2018-07-31T21:14:22.885Z,25.50
2018-07-31T21:16:51.562Z,25.50
2018-07-31T21:19:20.262Z,25.40
2018-07-31T21:21:49.057Z,25.40
2018-07-31T21:24:17.714Z,25.40
2018-07-31T21:26:46.443Z,25.40
2018-07-31T21:29:15.086Z,25.50
2018-07-31T21:31:43.960Z,25.40
2018-07-31T21:34:12.779Z,25.30
2018-07-31T21:36:41.566Z,25.20
2018-07-31T21:39:11.960Z,25.20
2018-07-31T21:41:41.675Z,25.10
2018-07-31T21:44:10.844Z,25.00
2018-07-31T21:46:39.162Z,25.00
2018-07-31T21:49:07.453Z,24.90
2018-07-31T21:51:35.668Z,24.90
2018-07-31T21:54:03.841Z,24.80
2018-07-31T21:56:32.103Z,24.80
2018-07-31T21:59:00.273Z,24.80
2018-07-31T22:01:28.480Z,24.90
2018-07-31T22:03:56.669Z,24.90
2018-07-31T22:06:24.873Z,24.90
2018-07-31T22:08:53.069Z,25.10
2018-07-31T22:11:21.230Z,25.10
2018-07-31T22:13:49.442Z,25.10
2018-07-31T22:16:17.633Z,25.00
2018-07-31T22:18:45.852Z,24.90
2018-07-31T22:21:14.044Z,24.80
2018-07-31T22:23:42.236Z,24.80
2018-07-31T22:26:10.477Z,24.90
2018-07-31T22:28:38.687Z,24.90
2018-07-31T22:31:06.973Z,25.00
2018-07-31T22:33:35.124Z,24.80
2018-07-31T22:36:03.449Z,24.80
2018-07-31T22:38:31.688Z,24.90
2018-07-31T22:40:59.852Z,24.90
2018-07-31T22:43:28.077Z,24.90
2018-07-31T22:45:56.315Z,24.80
2018-07-31T22:48:24.521Z,24.80
2018-07-31T22:50:52.737Z,24.80
2018-07-31T22:53:20.900Z,24.70
2018-07-31T22:55:49.147Z,24.40
2018-07-31T22:58:17.316Z,24.40
2018-07-31T23:00:45.517Z,24.30
2018-07-31T23:03:13.862Z,24.30
2018-07-31T23:08:10.071Z,24.40
2018-07-31T23:10:38.249Z,24.40
2018-07-31T23:13:06.453Z,24.30
2018-07-31T23:15:34.656Z,24.20
2018-07-31T23:18:02.884Z,24.10
2018-07-31T23:20:31.128Z,24.00
2018-07-31T23:22:59.300Z,23.90
2018-07-31T23:25:27.509Z,23.90
2018-07-31T23:27:55.702Z,23.80
2018-07-31T23:30:23.983Z,23.80
2018-07-31T23:32:52.160Z,23.70
2018-07-31T23:35:20.410Z,23.80
2018-07-31T23:37:48.745Z,23.90
2018-07-31T23:40:17.000Z,23.90
2018-07-31T23:42:45.244Z,23.90
2018-07-31T23:45:13.509Z,23.90
2018-07-31T23:47:41.688Z,23.90
2018-07-31T23:50:09.872Z,23.90
2018-07-31T23:52:38.050Z,24.00
2018-07-31T23:55:06.281Z,24.00
2018-07-31T23:57:34.467Z,24.10
